sensor_id;sensor_type;location;lat;lon;timestamp;temperature;humidity
70076;DHT22;63241;51.056;3.698;2023-04-25T00:00:42;10.20;99.90
70076;DHT22;63241;51.056;3.698;2023-04-25T00:03:09;10.10;99.90
70076;DHT22;63241;51.056;3.698;2023-04-25T00:05:38;10.20;99.90
70076;DHT22;63241;51.056;3.698;2023-04-25T00:08:05;10.20;99.90
70076;DHT22;63241;51.056;3.698;2023-04-25T00:10:33;10.20;99.90
70076;DHT22;63241;51.056;3.698;2023-04-25T00:13:01;10.20;99.90
70076;DHT22;63241;51.056;3.698;2023-04-25T00:15:29;10.20;99.90
70076;DHT22;63241;51.056;3.698;2023-04-25T00:17:59;10.10;99.90
70076;DHT22;63241;51.056;3.698;2023-04-25T00:20:27;10.10;99.90
70076;DHT22;63241;51.056;3.698;2023-04-25T00:22:55;10.10;99.90
70076;DHT22;63241;51.056;3.698;2023-04-25T00:25:22;10.00;99.90
70076;DHT22;63241;51.056;3.698;2023-04-25T00:27:50;10.00;99.90
70076;DHT22;63241;51.056;3.698;2023-04-25T00:30:18;10.00;99.90
70076;DHT22;63241;51.056;3.698;2023-04-25T00:32:46;10.00;99.90
70076;DHT22;63241;51.056;3.698;2023-04-25T00:35:13;10.10;99.90
70076;DHT22;63241;51.056;3.698;2023-04-25T00:37:41;10.10;99.90
70076;DHT22;63241;51.056;3.698;2023-04-25T00:40:09;10.10;99.90
70076;DHT22;63241;51.056;3.698;2023-04-25T00:42:37;10.10;99.90
70076;DHT22;63241;51.056;3.698;2023-04-25T00:45:06;10.10;99.90
70076;DHT22;63241;51.056;3.698;2023-04-25T00:47:35;10.00;99.90
70076;DHT22;63241;51.056;3.698;2023-04-25T00:50:04;10.00;99.90
70076;DHT22;63241;51.056;3.698;2023-04-25T00:52:32;10.00;99.90
70076;DHT22;63241;51.056;3.698;2023-04-25T00:55:00;10.00;99.90
70076;DHT22;63241;51.056;3.698;2023-04-25T00:57:27;10.00;99.90
70076;DHT22;63241;51.056;3.698;2023-04-25T00:59:56;10.00;99.90
70076;DHT22;63241;51.056;3.698;2023-04-25T01:02:23;9.90;99.90
70076;DHT22;63241;51.056;3.698;2023-04-25T01:04:53;10.00;99.90
70076;DHT22;63241;51.056;3.698;2023-04-25T01:07:21;9.90;99.90
70076;DHT22;63241;51.056;3.698;2023-04-25T01:09:48;9.90;99.90
70076;DHT22;63241;51.056;3.698;2023-04-25T01:12:18;9.90;99.90
70076;DHT22;63241;51.056;3.698;2023-04-25T01:14:46;9.80;99.90
70076;DHT22;63241;51.056;3.698;2023-04-25T01:17:14;9.80;99.90
70076;DHT22;63241;51.056;3.698;2023-04-25T01:19:42;9.80;99.90
70076;DHT22;63241;51.056;3.698;2023-04-25T01:22:11;9.80;99.90
70076;DHT22;63241;51.056;3.698;2023-04-25T01:24:39;9.70;99.90
70076;DHT22;63241;51.056;3.698;2023-04-25T01:27:07;9.70;99.90
70076;DHT22;63241;51.056;3.698;2023-04-25T01:29:36;9.70;99.90
70076;DHT22;63241;51.056;3.698;2023-04-25T01:32:05;9.70;99.90
70076;DHT22;63241;51.056;3.698;2023-04-25T01:34:33;9.70;99.90
70076;DHT22;63241;51.056;3.698;2023-04-25T01:37:00;9.70;99.90
70076;DHT22;63241;51.056;3.698;2023-04-25T01:39:31;9.70;99.90
70076;DHT22;63241;51.056;3.698;2023-04-25T01:41:59;9.70;99.90
70076;DHT22;63241;51.056;3.698;2023-04-25T01:44:28;9.70;99.90
70076;DHT22;63241;51.056;3.698;2023-04-25T01:46:55;9.70;99.90
70076;DHT22;63241;51.056;3.698;2023-04-25T01:49:23;9.70;99.90
70076;DHT22;63241;51.056;3.698;2023-04-25T01:51:51;9.70;99.90
70076;DHT22;63241;51.056;3.698;2023-04-25T01:54:19;9.70;99.90
70076;DHT22;63241;51.056;3.698;2023-04-25T01:56:51;9.70;99.90
70076;DHT22;63241;51.056;3.698;2023-04-25T01:59:19;9.70;99.90
70076;DHT22;63241;51.056;3.698;2023-04-25T02:01:49;9.70;99.90
70076;DHT22;63241;51.056;3.698;2023-04-25T02:04:17;9.70;99.90
70076;DHT22;63241;51.056;3.698;2023-04-25T02:06:44;9.60;99.90
70076;DHT22;63241;51.056;3.698;2023-04-25T02:09:12;9.60;99.90
70076;DHT22;63241;51.056;3.698;2023-04-25T02:11:40;9.60;99.90
70076;DHT22;63241;51.056;3.698;2023-04-25T02:14:07;9.60;99.90
70076;DHT22;63241;51.056;3.698;2023-04-25T02:16:35;9.50;99.90
70076;DHT22;63241;51.056;3.698;2023-04-25T02:19:03;9.60;99.90
70076;DHT22;63241;51.056;3.698;2023-04-25T02:21:31;9.50;99.90
70076;DHT22;63241;51.056;3.698;2023-04-25T02:23:59;9.60;99.90
70076;DHT22;63241;51.056;3.698;2023-04-25T02:26:27;9.60;99.90
70076;DHT22;63241;51.056;3.698;2023-04-25T02:28:54;9.60;99.90
70076;DHT22;63241;51.056;3.698;2023-04-25T02:31:22;9.60;99.90
70076;DHT22;63241;51.056;3.698;2023-04-25T02:33:50;9.50;99.90
70076;DHT22;63241;51.056;3.698;2023-04-25T02:36:17;9.50;99.90
70076;DHT22;63241;51.056;3.698;2023-04-25T02:38:45;9.60;99.90
70076;DHT22;63241;51.056;3.698;2023-04-25T02:41:13;9.50;99.90
70076;DHT22;63241;51.056;3.698;2023-04-25T02:43:41;9.50;99.90
70076;DHT22;63241;51.056;3.698;2023-04-25T02:46:08;9.50;99.90
70076;DHT22;63241;51.056;3.698;2023-04-25T02:48:36;9.40;99.90
70076;DHT22;63241;51.056;3.698;2023-04-25T02:51:04;9.40;99.90
70076;DHT22;63241;51.056;3.698;2023-04-25T02:53:31;9.30;99.90
70076;DHT22;63241;51.056;3.698;2023-04-25T02:55:59;9.30;99.90
70076;DHT22;63241;51.056;3.698;2023-04-25T02:58:27;9.30;99.90
70076;DHT22;63241;51.056;3.698;2023-04-25T03:00:55;9.30;99.90
70076;DHT22;63241;51.056;3.698;2023-04-25T03:03:22;9.20;99.90
70076;DHT22;63241;51.056;3.698;2023-04-25T03:05:51;9.20;99.90
70076;DHT22;63241;51.056;3.698;2023-04-25T03:08:18;9.20;99.90
70076;DHT22;63241;51.056;3.698;2023-04-25T03:10:46;9.20;99.90
70076;DHT22;63241;51.056;3.698;2023-04-25T03:13:14;9.10;99.90
70076;DHT22;63241;51.056;3.698;2023-04-25T03:15:42;9.00;99.90
70076;DHT22;63241;51.056;3.698;2023-04-25T03:18:09;9.00;99.90
70076;DHT22;63241;51.056;3.698;2023-04-25T03:20:37;8.90;99.90
70076;DHT22;63241;51.056;3.698;2023-04-25T03:23:06;8.90;99.90
70076;DHT22;63241;51.056;3.698;2023-04-25T03:25:33;8.90;99.90
70076;DHT22;63241;51.056;3.698;2023-04-25T03:28:01;8.90;99.90
70076;DHT22;63241;51.056;3.698;2023-04-25T03:30:29;8.70;99.90
70076;DHT22;63241;51.056;3.698;2023-04-25T03:32:56;8.80;99.90
70076;DHT22;63241;51.056;3.698;2023-04-25T03:35:24;8.80;99.90
70076;DHT22;63241;51.056;3.698;2023-04-25T03:37:52;8.80;99.90
70076;DHT22;63241;51.056;3.698;2023-04-25T03:40:19;8.70;99.90
70076;DHT22;63241;51.056;3.698;2023-04-25T03:42:47;8.70;99.90
70076;DHT22;63241;51.056;3.698;2023-04-25T03:45:15;8.80;99.90
70076;DHT22;63241;51.056;3.698;2023-04-25T03:47:42;8.70;99.90
70076;DHT22;63241;51.056;3.698;2023-04-25T03:50:10;8.70;99.90
70076;DHT22;63241;51.056;3.698;2023-04-25T03:52:38;8.70;99.90
70076;DHT22;63241;51.056;3.698;2023-04-25T03:55:06;8.70;99.90
70076;DHT22;63241;51.056;3.698;2023-04-25T03:57:34;8.70;99.90
70076;DHT22;63241;51.056;3.698;2023-04-25T04:00:02;8.70;99.90
70076;DHT22;63241;51.056;3.698;2023-04-25T04:02:30;8.60;99.90
70076;DHT22;63241;51.056;3.698;2023-04-25T04:04:59;8.70;99.90
70076;DHT22;63241;51.056;3.698;2023-04-25T04:07:27;8.60;99.90
70076;DHT22;63241;51.056;3.698;2023-04-25T04:09:55;8.60;99.90
70076;DHT22;63241;51.056;3.698;2023-04-25T04:12:22;8.50;99.90
70076;DHT22;63241;51.056;3.698;2023-04-25T04:14:50;8.60;99.90
70076;DHT22;63241;51.056;3.698;2023-04-25T04:17:17;8.60;99.90
70076;DHT22;63241;51.056;3.698;2023-04-25T04:19:45;8.70;99.90
70076;DHT22;63241;51.056;3.698;2023-04-25T04:22:13;8.70;99.90
70076;DHT22;63241;51.056;3.698;2023-04-25T04:24:40;8.70;99.90
70076;DHT22;63241;51.056;3.698;2023-04-25T04:27:10;8.70;99.90
70076;DHT22;63241;51.056;3.698;2023-04-25T04:29:39;8.70;99.90
70076;DHT22;63241;51.056;3.698;2023-04-25T04:32:07;8.70;99.90
70076;DHT22;63241;51.056;3.698;2023-04-25T04:34:35;8.70;99.90
70076;DHT22;63241;51.056;3.698;2023-04-25T04:37:03;8.70;99.90
70076;DHT22;63241;51.056;3.698;2023-04-25T04:39:30;8.70;99.90
70076;DHT22;63241;51.056;3.698;2023-04-25T04:41:58;8.80;99.90
70076;DHT22;63241;51.056;3.698;2023-04-25T04:44:27;8.80;99.90
70076;DHT22;63241;51.056;3.698;2023-04-25T04:47:02;8.70;99.90
70076;DHT22;63241;51.056;3.698;2023-04-25T04:49:31;8.70;99.90
70076;DHT22;63241;51.056;3.698;2023-04-25T04:51:58;8.70;99.90
70076;DHT22;63241;51.056;3.698;2023-04-25T04:54:27;8.70;99.90
70076;DHT22;63241;51.056;3.698;2023-04-25T04:56:54;8.70;99.90
70076;DHT22;63241;51.056;3.698;2023-04-25T04:59:22;8.70;99.90
70076;DHT22;63241;51.056;3.698;2023-04-25T05:01:50;8.80;99.90
70076;DHT22;63241;51.056;3.698;2023-04-25T05:04:17;8.80;99.90
70076;DHT22;63241;51.056;3.698;2023-04-25T05:06:45;8.80;99.90
70076;DHT22;63241;51.056;3.698;2023-04-25T05:09:13;8.90;99.90
70076;DHT22;63241;51.056;3.698;2023-04-25T05:11:41;8.90;99.90
70076;DHT22;63241;51.056;3.698;2023-04-25T05:14:09;9.00;99.90
70076;DHT22;63241;51.056;3.698;2023-04-25T05:16:36;9.10;99.90
70076;DHT22;63241;51.056;3.698;2023-04-25T05:19:04;9.30;99.90
70076;DHT22;63241;51.056;3.698;2023-04-25T05:21:32;9.50;99.90
70076;DHT22;63241;51.056;3.698;2023-04-25T05:24:00;9.50;99.90
70076;DHT22;63241;51.056;3.698;2023-04-25T05:26:27;9.50;99.90
70076;DHT22;63241;51.056;3.698;2023-04-25T05:28:57;9.60;99.90
70076;DHT22;63241;51.056;3.698;2023-04-25T05:31:25;9.60;99.90
70076;DHT22;63241;51.056;3.698;2023-04-25T05:33:53;9.70;99.90
70076;DHT22;63241;51.056;3.698;2023-04-25T05:36:21;9.70;99.90
70076;DHT22;63241;51.056;3.698;2023-04-25T05:38:49;9.70;99.90
70076;DHT22;63241;51.056;3.698;2023-04-25T05:41:16;9.70;99.90
70076;DHT22;63241;51.056;3.698;2023-04-25T05:43:44;9.80;99.90
70076;DHT22;63241;51.056;3.698;2023-04-25T05:46:13;9.80;99.90
70076;DHT22;63241;51.056;3.698;2023-04-25T05:48:43;9.90;99.90
70076;DHT22;63241;51.056;3.698;2023-04-25T05:51:10;10.00;99.90
70076;DHT22;63241;51.056;3.698;2023-04-25T05:53:38;10.00;99.90
70076;DHT22;63241;51.056;3.698;2023-04-25T05:56:06;10.00;99.90
70076;DHT22;63241;51.056;3.698;2023-04-25T05:58:34;10.00;99.90
70076;DHT22;63241;51.056;3.698;2023-04-25T06:01:02;10.00;99.90
70076;DHT22;63241;51.056;3.698;2023-04-25T06:03:30;9.90;99.90
70076;DHT22;63241;51.056;3.698;2023-04-25T06:05:57;10.00;99.90
70076;DHT22;63241;51.056;3.698;2023-04-25T06:08:25;10.10;99.90
70076;DHT22;63241;51.056;3.698;2023-04-25T06:10:53;10.30;99.90
70076;DHT22;63241;51.056;3.698;2023-04-25T06:13:21;10.60;99.90
70076;DHT22;63241;51.056;3.698;2023-04-25T06:15:48;10.90;99.90
70076;DHT22;63241;51.056;3.698;2023-04-25T06:18:16;11.10;99.90
70076;DHT22;63241;51.056;3.698;2023-04-25T06:20:44;11.20;99.90
70076;DHT22;63241;51.056;3.698;2023-04-25T06:23:11;11.50;99.90
70076;DHT22;63241;51.056;3.698;2023-04-25T06:25:39;11.60;99.90
70076;DHT22;63241;51.056;3.698;2023-04-25T06:28:07;11.90;99.90
70076;DHT22;63241;51.056;3.698;2023-04-25T06:30:34;12.10;99.90
70076;DHT22;63241;51.056;3.698;2023-04-25T06:33:02;12.10;99.90
70076;DHT22;63241;51.056;3.698;2023-04-25T06:35:30;12.10;99.90
70076;DHT22;63241;51.056;3.698;2023-04-25T06:37:58;12.10;99.90
70076;DHT22;63241;51.056;3.698;2023-04-25T06:40:26;12.00;99.90
70076;DHT22;63241;51.056;3.698;2023-04-25T06:42:54;11.90;99.30
70076;DHT22;63241;51.056;3.698;2023-04-25T06:45:21;11.80;99.40
70076;DHT22;63241;51.056;3.698;2023-04-25T06:47:49;11.70;97.90
70076;DHT22;63241;51.056;3.698;2023-04-25T06:50:17;11.40;97.80
70076;DHT22;63241;51.056;3.698;2023-04-25T06:52:44;11.40;98.10
70076;DHT22;63241;51.056;3.698;2023-04-25T06:55:12;11.60;99.20
70076;DHT22;63241;51.056;3.698;2023-04-25T06:57:40;11.80;98.80
70076;DHT22;63241;51.056;3.698;2023-04-25T07:00:08;12.20;98.50
70076;DHT22;63241;51.056;3.698;2023-04-25T07:02:36;12.90;98.10
70076;DHT22;63241;51.056;3.698;2023-04-25T07:05:04;13.50;96.90
70076;DHT22;63241;51.056;3.698;2023-04-25T07:07:32;15.40;96.10
70076;DHT22;63241;51.056;3.698;2023-04-25T07:10:00;16.80;88.70
70076;DHT22;63241;51.056;3.698;2023-04-25T07:12:27;17.60;77.20
70076;DHT22;63241;51.056;3.698;2023-04-25T07:14:55;19.70;72.10
70076;DHT22;63241;51.056;3.698;2023-04-25T07:17:23;23.70;61.50
70076;DHT22;63241;51.056;3.698;2023-04-25T07:19:50;26.90;45.10
70076;DHT22;63241;51.056;3.698;2023-04-25T07:22:18;29.60;39.80
70076;DHT22;63241;51.056;3.698;2023-04-25T07:24:46;31.30;34.90
70076;DHT22;63241;51.056;3.698;2023-04-25T07:27:15;31.10;31.60
70076;DHT22;63241;51.056;3.698;2023-04-25T07:29:42;29.60;30.10
70076;DHT22;63241;51.056;3.698;2023-04-25T07:32:10;27.60;30.80
70076;DHT22;63241;51.056;3.698;2023-04-25T07:34:39;27.40;34.40
70076;DHT22;63241;51.056;3.698;2023-04-25T07:37:08;28.20;31.00
70076;DHT22;63241;51.056;3.698;2023-04-25T07:39:35;28.60;31.30
70076;DHT22;63241;51.056;3.698;2023-04-25T07:42:04;30.30;30.50
70076;DHT22;63241;51.056;3.698;2023-04-25T07:44:33;31.60;27.80
70076;DHT22;63241;51.056;3.698;2023-04-25T07:47:06;32.30;25.80
70076;DHT22;63241;51.056;3.698;2023-04-25T07:49:35;34.20;26.10
70076;DHT22;63241;51.056;3.698;2023-04-25T07:52:04;35.80;24.20
70076;DHT22;63241;51.056;3.698;2023-04-25T07:54:32;36.30;23.20
70076;DHT22;63241;51.056;3.698;2023-04-25T07:57:00;36.40;23.00
70076;DHT22;63241;51.056;3.698;2023-04-25T07:59:29;36.20;23.10
70076;DHT22;63241;51.056;3.698;2023-04-25T08:01:56;37.50;22.50
70076;DHT22;63241;51.056;3.698;2023-04-25T08:04:24;38.20;20.80
70076;DHT22;63241;51.056;3.698;2023-04-25T08:06:52;35.90;21.70
70076;DHT22;63241;51.056;3.698;2023-04-25T08:09:20;33.70;22.50
70076;DHT22;63241;51.056;3.698;2023-04-25T08:11:48;30.90;24.60
70076;DHT22;63241;51.056;3.698;2023-04-25T08:14:16;28.30;26.90
70076;DHT22;63241;51.056;3.698;2023-04-25T08:16:44;26.50;28.50
70076;DHT22;63241;51.056;3.698;2023-04-25T08:19:12;25.60;30.90
70076;DHT22;63241;51.056;3.698;2023-04-25T08:21:39;24.70;31.30
70076;DHT22;63241;51.056;3.698;2023-04-25T08:24:07;24.60;32.50
70076;DHT22;63241;51.056;3.698;2023-04-25T08:26:35;26.00;33.00
70076;DHT22;63241;51.056;3.698;2023-04-25T08:29:03;28.40;29.40
70076;DHT22;63241;51.056;3.698;2023-04-25T08:31:32;31.60;27.90
70076;DHT22;63241;51.056;3.698;2023-04-25T08:33:59;33.80;24.20
70076;DHT22;63241;51.056;3.698;2023-04-25T08:36:27;35.50;23.30
70076;DHT22;63241;51.056;3.698;2023-04-25T08:38:55;35.70;21.70
70076;DHT22;63241;51.056;3.698;2023-04-25T08:41:23;34.50;22.40
70076;DHT22;63241;51.056;3.698;2023-04-25T08:43:51;32.30;22.40
70076;DHT22;63241;51.056;3.698;2023-04-25T08:46:20;31.70;23.70
70076;DHT22;63241;51.056;3.698;2023-04-25T08:48:49;30.30;23.80
70076;DHT22;63241;51.056;3.698;2023-04-25T08:51:22;30.10;26.00
70076;DHT22;63241;51.056;3.698;2023-04-25T08:53:54;32.50;25.50
70076;DHT22;63241;51.056;3.698;2023-04-25T08:56:23;35.50;22.10
70076;DHT22;63241;51.056;3.698;2023-04-25T08:58:51;37.40;20.50
70076;DHT22;63241;51.056;3.698;2023-04-25T09:01:19;39.20;19.80
70076;DHT22;63241;51.056;3.698;2023-04-25T09:03:47;37.60;19.00
70076;DHT22;63241;51.056;3.698;2023-04-25T09:06:15;35.70;19.60
70076;DHT22;63241;51.056;3.698;2023-04-25T09:08:43;33.00;21.30
70076;DHT22;63241;51.056;3.698;2023-04-25T09:11:12;30.50;23.70
70076;DHT22;63241;51.056;3.698;2023-04-25T09:13:41;27.70;26.90
70076;DHT22;63241;51.056;3.698;2023-04-25T09:16:09;25.50;29.60
70076;DHT22;63241;51.056;3.698;2023-04-25T09:18:36;23.40;32.20
70076;DHT22;63241;51.056;3.698;2023-04-25T09:21:11;22.00;35.70
70076;DHT22;63241;51.056;3.698;2023-04-25T09:23:45;21.20;38.00
70076;DHT22;63241;51.056;3.698;2023-04-25T09:26:17;20.10;41.10
70076;DHT22;63241;51.056;3.698;2023-04-25T09:28:46;19.40;42.20
70076;DHT22;63241;51.056;3.698;2023-04-25T09:31:23;18.80;43.20
70076;DHT22;63241;51.056;3.698;2023-04-25T09:34:01;18.70;43.80
70076;DHT22;63241;51.056;3.698;2023-04-25T09:36:30;18.50;44.30
70076;DHT22;63241;51.056;3.698;2023-04-25T09:39:00;18.80;45.00
70076;DHT22;63241;51.056;3.698;2023-04-25T09:41:27;19.20;44.00
70076;DHT22;63241;51.056;3.698;2023-04-25T09:43:57;21.10;43.50
70076;DHT22;63241;51.056;3.698;2023-04-25T09:46:25;24.70;38.60
70076;DHT22;63241;51.056;3.698;2023-04-25T09:48:53;27.80;34.40
70076;DHT22;63241;51.056;3.698;2023-04-25T09:51:20;27.90;30.00
70076;DHT22;63241;51.056;3.698;2023-04-25T09:53:49;27.40;29.60
70076;DHT22;63241;51.056;3.698;2023-04-25T09:56:18;26.90;29.80
70076;DHT22;63241;51.056;3.698;2023-04-25T10:09:33;23.60;33.70
70076;DHT22;63241;51.056;3.698;2023-04-25T10:12:02;22.70;33.90
70076;DHT22;63241;51.056;3.698;2023-04-25T10:14:33;22.50;36.30
70076;DHT22;63241;51.056;3.698;2023-04-25T10:17:01;21.90;36.30
70076;DHT22;63241;51.056;3.698;2023-04-25T10:19:29;21.70;37.30
70076;DHT22;63241;51.056;3.698;2023-04-25T10:25:05;21.30;38.70
70076;DHT22;63241;51.056;3.698;2023-04-25T10:27:35;21.20;38.90
70076;DHT22;63241;51.056;3.698;2023-04-25T10:30:14;20.70;38.80
70076;DHT22;63241;51.056;3.698;2023-04-25T10:32:43;20.10;40.60
70076;DHT22;63241;51.056;3.698;2023-04-25T10:35:16;20.00;42.00
70076;DHT22;63241;51.056;3.698;2023-04-25T10:38:09;20.60;42.30
70076;DHT22;63241;51.056;3.698;2023-04-25T10:40:34;21.40;41.30
70076;DHT22;63241;51.056;3.698;2023-04-25T10:46:13;24.60;38.70
70076;DHT22;63241;51.056;3.698;2023-04-25T10:54:16;27.30;30.50
70076;DHT22;63241;51.056;3.698;2023-04-25T10:56:45;27.50;29.70
70076;DHT22;63241;51.056;3.698;2023-04-25T10:59:19;27.80;30.30
70076;DHT22;63241;51.056;3.698;2023-04-25T11:09:58;26.80;29.90
70076;DHT22;63241;51.056;3.698;2023-04-25T11:12:30;26.40;29.70
70076;DHT22;63241;51.056;3.698;2023-04-25T11:15:00;26.00;29.90
70076;DHT22;63241;51.056;3.698;2023-04-25T11:20:31;24.80;31.10
70076;DHT22;63241;51.056;3.698;2023-04-25T11:22:59;23.80;31.90
70076;DHT22;63241;51.056;3.698;2023-04-25T11:25:27;23.10;34.70
70076;DHT22;63241;51.056;3.698;2023-04-25T11:27:57;22.70;34.50
70076;DHT22;63241;51.056;3.698;2023-04-25T11:30:27;22.40;32.50
70076;DHT22;63241;51.056;3.698;2023-04-25T11:32:57;22.00;34.70
70076;DHT22;63241;51.056;3.698;2023-04-25T11:35:25;21.60;33.50
70076;DHT22;63241;51.056;3.698;2023-04-25T11:37:53;21.50;34.80
70076;DHT22;63241;51.056;3.698;2023-04-25T11:40:21;21.60;35.70
70076;DHT22;63241;51.056;3.698;2023-04-25T11:42:48;21.50;35.80
70076;DHT22;63241;51.056;3.698;2023-04-25T11:45:16;21.80;36.20
70076;DHT22;63241;51.056;3.698;2023-04-25T11:47:45;22.20;37.40
70076;DHT22;63241;51.056;3.698;2023-04-25T11:50:13;23.60;35.00
70076;DHT22;63241;51.056;3.698;2023-04-25T11:52:46;25.20;35.10
70076;DHT22;63241;51.056;3.698;2023-04-25T11:55:16;26.30;32.40
70076;DHT22;63241;51.056;3.698;2023-04-25T11:57:45;27.00;31.90
70076;DHT22;63241;51.056;3.698;2023-04-25T12:00:22;27.30;29.70
70076;DHT22;63241;51.056;3.698;2023-04-25T12:02:52;26.90;30.00
70076;DHT22;63241;51.056;3.698;2023-04-25T12:05:16;26.00;29.70
70076;DHT22;63241;51.056;3.698;2023-04-25T12:07:44;25.40;30.00
70076;DHT22;63241;51.056;3.698;2023-04-25T12:10:14;24.30;30.00
70076;DHT22;63241;51.056;3.698;2023-04-25T12:12:43;23.30;33.00
70076;DHT22;63241;51.056;3.698;2023-04-25T12:15:13;23.00;34.10
70076;DHT22;63241;51.056;3.698;2023-04-25T12:17:46;23.50;35.40
70076;DHT22;63241;51.056;3.698;2023-04-25T12:20:21;25.00;33.90
70076;DHT22;63241;51.056;3.698;2023-04-25T12:22:48;26.50;30.70
70076;DHT22;63241;51.056;3.698;2023-04-25T12:33:49;26.90;29.10
70076;DHT22;63241;51.056;3.698;2023-04-25T12:36:17;25.70;29.80
70076;DHT22;63241;51.056;3.698;2023-04-25T12:38:46;24.60;30.20
70076;DHT22;63241;51.056;3.698;2023-04-25T12:41:15;23.60;31.70
70076;DHT22;63241;51.056;3.698;2023-04-25T12:43:43;22.80;32.20
70076;DHT22;63241;51.056;3.698;2023-04-25T12:46:11;22.10;34.10
70076;DHT22;63241;51.056;3.698;2023-04-25T12:48:38;22.10;34.60
70076;DHT22;63241;51.056;3.698;2023-04-25T12:51:06;21.70;35.70
70076;DHT22;63241;51.056;3.698;2023-04-25T12:53:34;21.60;36.10
70076;DHT22;63241;51.056;3.698;2023-04-25T12:56:03;21.70;36.10
70076;DHT22;63241;51.056;3.698;2023-04-25T12:58:31;23.00;37.20
70076;DHT22;63241;51.056;3.698;2023-04-25T13:01:00;24.20;34.20
70076;DHT22;63241;51.056;3.698;2023-04-25T13:03:27;24.50;34.80
70076;DHT22;63241;51.056;3.698;2023-04-25T13:05:55;23.20;33.50
70076;DHT22;63241;51.056;3.698;2023-04-25T13:08:23;22.60;34.20
70076;DHT22;63241;51.056;3.698;2023-04-25T13:10:51;22.10;37.10
70076;DHT22;63241;51.056;3.698;2023-04-25T13:13:19;21.70;37.90
70076;DHT22;63241;51.056;3.698;2023-04-25T13:15:46;22.00;37.60
70076;DHT22;63241;51.056;3.698;2023-04-25T13:18:15;22.90;37.30
70076;DHT22;63241;51.056;3.698;2023-04-25T13:20:42;23.60;35.50
70076;DHT22;63241;51.056;3.698;2023-04-25T13:23:10;23.30;34.80
70076;DHT22;63241;51.056;3.698;2023-04-25T13:25:38;23.20;35.50
70076;DHT22;63241;51.056;3.698;2023-04-25T13:28:05;22.80;35.70
70076;DHT22;63241;51.056;3.698;2023-04-25T13:30:33;22.10;35.50
70076;DHT22;63241;51.056;3.698;2023-04-25T13:33:01;21.50;38.10
70076;DHT22;63241;51.056;3.698;2023-04-25T13:35:30;20.60;38.70
70076;DHT22;63241;51.056;3.698;2023-04-25T13:37:58;20.00;41.10
70076;DHT22;63241;51.056;3.698;2023-04-25T13:40:26;19.70;41.90
70076;DHT22;63241;51.056;3.698;2023-04-25T13:42:54;19.50;42.30
70076;DHT22;63241;51.056;3.698;2023-04-25T13:45:22;19.10;41.80
70076;DHT22;63241;51.056;3.698;2023-04-25T13:47:49;18.90;42.60
70076;DHT22;63241;51.056;3.698;2023-04-25T13:50:17;19.40;43.10
70076;DHT22;63241;51.056;3.698;2023-04-25T13:52:45;19.70;41.10
70076;DHT22;63241;51.056;3.698;2023-04-25T13:55:13;20.60;40.90
70076;DHT22;63241;51.056;3.698;2023-04-25T13:57:40;20.40;39.50
70076;DHT22;63241;51.056;3.698;2023-04-25T14:00:08;20.10;39.80
70076;DHT22;63241;51.056;3.698;2023-04-25T14:02:36;19.60;40.00
70076;DHT22;63241;51.056;3.698;2023-04-25T14:05:05;19.20;40.70
70076;DHT22;63241;51.056;3.698;2023-04-25T14:07:34;19.00;41.90
70076;DHT22;63241;51.056;3.698;2023-04-25T14:10:03;19.00;42.20
70076;DHT22;63241;51.056;3.698;2023-04-25T14:12:32;18.80;41.70
70076;DHT22;63241;51.056;3.698;2023-04-25T14:15:00;18.90;41.00
70076;DHT22;63241;51.056;3.698;2023-04-25T14:17:27;18.60;40.20
70076;DHT22;63241;51.056;3.698;2023-04-25T14:19:55;18.30;42.40
70076;DHT22;63241;51.056;3.698;2023-04-25T14:22:23;18.10;41.10
70076;DHT22;63241;51.056;3.698;2023-04-25T14:24:50;17.90;41.50
70076;DHT22;63241;51.056;3.698;2023-04-25T14:27:18;17.70;42.30
70076;DHT22;63241;51.056;3.698;2023-04-25T14:29:46;17.60;43.50
70076;DHT22;63241;51.056;3.698;2023-04-25T14:32:14;17.60;43.60
70076;DHT22;63241;51.056;3.698;2023-04-25T14:34:42;17.60;43.60
70076;DHT22;63241;51.056;3.698;2023-04-25T14:37:10;17.60;43.10
70076;DHT22;63241;51.056;3.698;2023-04-25T14:39:38;17.30;42.60
70076;DHT22;63241;51.056;3.698;2023-04-25T14:42:05;17.20;43.10
70076;DHT22;63241;51.056;3.698;2023-04-25T14:44:33;17.20;44.20
70076;DHT22;63241;51.056;3.698;2023-04-25T14:47:01;17.00;43.40
70076;DHT22;63241;51.056;3.698;2023-04-25T14:49:29;16.90;44.30
70076;DHT22;63241;51.056;3.698;2023-04-25T14:51:56;16.80;44.20
70076;DHT22;63241;51.056;3.698;2023-04-25T14:54:24;16.80;44.40
70076;DHT22;63241;51.056;3.698;2023-04-25T14:56:52;16.60;44.40
70076;DHT22;63241;51.056;3.698;2023-04-25T14:59:20;16.30;44.00
70076;DHT22;63241;51.056;3.698;2023-04-25T15:01:48;16.30;45.00
70076;DHT22;63241;51.056;3.698;2023-04-25T15:04:16;16.50;45.70
70076;DHT22;63241;51.056;3.698;2023-04-25T15:06:44;16.60;45.20
70076;DHT22;63241;51.056;3.698;2023-04-25T15:09:11;16.70;45.20
70076;DHT22;63241;51.056;3.698;2023-04-25T15:11:39;16.80;45.60
70076;DHT22;63241;51.056;3.698;2023-04-25T15:14:07;16.80;45.10
70076;DHT22;63241;51.056;3.698;2023-04-25T15:16:34;16.90;44.40
70076;DHT22;63241;51.056;3.698;2023-04-25T15:19:02;16.60;43.40
70076;DHT22;63241;51.056;3.698;2023-04-25T15:21:31;16.20;43.10
70076;DHT22;63241;51.056;3.698;2023-04-25T15:23:59;16.10;45.20
70076;DHT22;63241;51.056;3.698;2023-04-25T15:26:27;16.00;43.50
70076;DHT22;63241;51.056;3.698;2023-04-25T15:28:55;15.90;44.00
70076;DHT22;63241;51.056;3.698;2023-04-25T15:31:23;15.80;45.10
70076;DHT22;63241;51.056;3.698;2023-04-25T15:33:50;15.70;45.60
70076;DHT22;63241;51.056;3.698;2023-04-25T15:36:18;15.60;46.60
70076;DHT22;63241;51.056;3.698;2023-04-25T15:38:47;15.60;46.90
70076;DHT22;63241;51.056;3.698;2023-04-25T15:41:15;15.70;47.70
70076;DHT22;63241;51.056;3.698;2023-04-25T15:43:43;15.90;47.40
70076;DHT22;63241;51.056;3.698;2023-04-25T15:46:11;16.20;46.90
70076;DHT22;63241;51.056;3.698;2023-04-25T15:48:39;16.50;45.50
70076;DHT22;63241;51.056;3.698;2023-04-25T15:51:07;16.60;44.00
70076;DHT22;63241;51.056;3.698;2023-04-25T15:53:34;16.80;44.20
70076;DHT22;63241;51.056;3.698;2023-04-25T15:56:03;16.80;44.50
70076;DHT22;63241;51.056;3.698;2023-04-25T15:58:30;16.80;45.80
70076;DHT22;63241;51.056;3.698;2023-04-25T16:00:58;16.90;45.40
70076;DHT22;63241;51.056;3.698;2023-04-25T16:03:26;16.70;45.40
70076;DHT22;63241;51.056;3.698;2023-04-25T16:05:53;16.60;45.90
70076;DHT22;63241;51.056;3.698;2023-04-25T16:08:21;16.40;45.80
70076;DHT22;63241;51.056;3.698;2023-04-25T16:10:49;16.30;46.00
70076;DHT22;63241;51.056;3.698;2023-04-25T16:13:16;16.30;46.60
70076;DHT22;63241;51.056;3.698;2023-04-25T16:15:44;16.20;45.60
70076;DHT22;63241;51.056;3.698;2023-04-25T16:18:12;16.10;45.70
70076;DHT22;63241;51.056;3.698;2023-04-25T16:20:39;16.00;46.30
70076;DHT22;63241;51.056;3.698;2023-04-25T16:23:08;15.80;45.90